Time;durP1;ratioP1;P1;durP2;ratioP2;P2;SDS_P1;SDS_P2;PMS_P1;PMS_P2;Temp;Humidity;BMP_temperature;BMP_pressure;BME280_temperature;BME280_humidity;BME280_pressure;Samples;Min_cycle;Max_cycle;Signal;HPM_P1;HPM_P2
2023/05/08 00:00:25;;;;;;;5.32;3.47;;;;;;;;;;2040923;29;20023;-89
2023/05/08 00:01:25;;;;;;;4.20;3.53;;;;;;;;;;2041858;29;20049;-89
2023/05/08 00:02:26;;;;;;;4.60;3.40;;;;;;;;;;2040926;29;20023;-89
2023/05/08 00:03:26;;;;;;;3.60;3.00;;;;;;;;;;2049862;29;20033;-89
2023/05/08 00:04:26;;;;;;;3.38;3.08;;;;;;;;;;2041578;29;20150;-88
2023/05/08 00:05:27;;;;;;;8.15;3.40;;;;;;;;;;2040914;29;20117;-89
2023/05/08 00:06:27;;;;;;;6.15;3.63;;;;;;;;;;2049137;29;20047;-89
2023/05/08 00:07:28;;;;;;;7.22;3.65;;;;;;;;;;2049061;29;20068;-89
2023/05/08 00:08:28;;;;;;;4.68;3.30;;;;;;;;;;2040241;29;20024;-88
2023/05/08 00:09:28;;;;;;;5.78;3.22;;;;;;;;;;2040177;29;20448;-88
2023/05/08 00:10:29;;;;;;;6.10;3.50;;;;;;;;;;2048941;29;20054;-87
2023/05/08 00:11:31;;;;;;;4.90;3.17;;;;;;;;;;2040357;29;20188;-88
2023/05/08 00:12:32;;;;;;;5.15;3.13;;;;;;;;;;2040286;29;20032;-88
2023/05/08 00:13:32;;;;;;;4.95;3.58;;;;;;;;;;2048798;29;20073;-86
2023/05/08 00:14:32;;;;;;;5.43;3.38;;;;;;;;;;2048888;29;20023;-88
2023/05/08 00:15:35;;;;;;;3.60;3.13;;;;;;;;;;2047072;29;20044;-88
2023/05/08 00:16:36;;;;;;;4.22;3.45;;;;;;;;;;2049937;29;20160;-88
2023/05/08 00:17:36;;;;;;;5.07;3.00;;;;;;;;;;2049780;28;20008;-87
2023/05/08 00:18:38;;;;;;;5.63;3.50;;;;;;;;;;2046323;29;20028;-87
2023/05/08 00:19:38;;;;;;;4.97;3.35;;;;;;;;;;2034768;29;20203;-88
2023/05/08 00:20:38;;;;;;;5.45;3.60;;;;;;;;;;2033385;29;20036;-87
2023/05/08 00:21:39;;;;;;;4.78;3.08;;;;;;;;;;2034004;29;20020;-85
2023/05/08 00:22:39;;;;;;;4.32;3.47;;;;;;;;;;2042169;29;20020;-87
2023/05/08 00:23:40;;;;;;;6.43;3.42;;;;;;;;;;2048050;29;20073;-88
2023/05/08 00:24:40;;;;;;;5.55;3.38;;;;;;;;;;2039997;29;20444;-88
2023/05/08 00:25:41;;;;;;;3.50;3.08;;;;;;;;;;2040154;29;20610;-88
2023/05/08 00:26:43;;;;;;;5.38;3.15;;;;;;;;;;2040199;29;20169;-87
2023/05/08 00:27:43;;;;;;;5.05;3.03;;;;;;;;;;2048897;29;20038;-87
2023/05/08 00:28:43;;;;;;;5.72;3.20;;;;;;;;;;2040347;29;20039;-88
2023/05/08 00:29:44;;;;;;;4.43;3.13;;;;;;;;;;2032364;29;20360;-86
2023/05/08 00:30:44;;;;;;;3.65;2.83;;;;;;;;;;2039920;29;20035;-86
2023/05/08 00:31:45;;;;;;;5.25;2.97;;;;;;;;;;2039829;29;20036;-86
2023/05/08 00:32:45;;;;;;;5.55;3.20;;;;;;;;;;2032348;29;20058;-87
2023/05/08 00:33:46;;;;;;;3.75;3.13;;;;;;;;;;2032043;29;20068;-87
2023/05/08 00:34:46;;;;;;;4.55;3.10;;;;;;;;;;2039939;29;20079;-86
2023/05/08 00:35:47;;;;;;;4.60;3.08;;;;;;;;;;2039894;29;20039;-87
2023/05/08 00:36:47;;;;;;;5.18;3.42;;;;;;;;;;2048522;29;20031;-88
2023/05/08 00:37:47;;;;;;;;;;;;;;;;;;2040260;29;20480;-86
2023/05/08 00:38:48;;;;;;;6.67;2.97;;;;;;;;;;2039923;29;19970;-87
2023/05/08 00:39:48;;;;;;;5.15;3.28;;;;;;;;;;2040221;29;20027;-88
2023/05/08 00:40:48;;;;;;;;;;;;;;;;;;2040381;29;20028;-87
2023/05/08 00:41:49;;;;;;;5.37;3.10;;;;;;;;;;2048414;29;20013;-87
2023/05/08 00:42:49;;;;;;;4.43;3.50;;;;;;;;;;2040188;29;20059;-87
2023/05/08 00:43:50;;;;;;;4.28;3.53;;;;;;;;;;2031929;29;20486;-87
2023/05/08 00:44:50;;;;;;;6.28;4.45;;;;;;;;;;1684910;29;10433643;-87
2023/05/08 00:45:51;;;;;;;;;;;;;;;;;;2048800;29;20023;-87
2023/05/08 00:46:52;;;;;;;5.70;3.77;;;;;;;;;;2039944;29;19927;-87
2023/05/08 00:47:52;;;;;;;4.47;4.05;;;;;;;;;;2031744;29;20108;-87
2023/05/08 00:48:53;;;;;;;4.22;3.20;;;;;;;;;;2039841;29;20027;-86
2023/05/08 00:49:53;;;;;;;;;;;;;;;;;;2049123;29;20031;-85
2023/05/08 00:50:54;;;;;;;4.60;3.17;;;;;;;;;;2040023;29;20191;-86
2023/05/08 00:51:55;;;;;;;6.60;3.50;;;;;;;;;;2039832;29;20059;-87
2023/05/08 00:52:57;;;;;;;4.30;3.50;;;;;;;;;;2039481;29;20142;-87
2023/05/08 00:53:59;;;;;;;3.88;3.45;;;;;;;;;;2048176;29;20030;-87
2023/05/08 00:55:04;;;;;;;3.90;3.15;;;;;;;;;;2048449;29;20027;-87
2023/05/08 00:56:05;;;;;;;5.65;3.72;;;;;;;;;;2048296;29;20522;-87
2023/05/08 00:57:06;;;;;;;5.00;3.60;;;;;;;;;;2048435;29;20030;-87
2023/05/08 00:58:08;;;;;;;7.90;3.00;;;;;;;;;;2039703;29;20479;-87
2023/05/08 00:59:12;;;;;;;4.88;3.50;;;;;;;;;;2039967;29;20050;-87
2023/05/08 01:00:16;;;;;;;6.13;3.63;;;;;;;;;;2039675;29;20027;-87
2023/05/08 01:01:17;;;;;;;3.63;3.00;;;;;;;;;;2040237;29;20034;-88
2023/05/08 01:02:18;;;;;;;6.72;3.60;;;;;;;;;;2039741;29;20463;-87
2023/05/08 01:03:19;;;;;;;4.18;3.17;;;;;;;;;;2039594;29;20034;-88
2023/05/08 01:04:23;;;;;;;7.60;3.40;;;;;;;;;;2039784;29;20038;-87
2023/05/08 01:05:23;;;;;;;4.82;3.30;;;;;;;;;;2048206;29;20055;-87
2023/05/08 01:06:24;;;;;;;5.40;3.05;;;;;;;;;;2048020;29;20376;-88
2023/05/08 01:07:24;;;;;;;;;;;;;;;;;;2040126;29;20052;-87
2023/05/08 01:08:25;;;;;;;3.87;3.27;;;;;;;;;;2039932;29;19911;-88
2023/05/08 01:09:25;;;;;;;4.68;3.50;;;;;;;;;;2048117;29;20023;-88
2023/05/08 01:10:30;;;;;;;;;;;;;;;;;;2048788;29;20399;-88
2023/05/08 01:11:49;;;;;;;4.78;3.63;;;;;;;;;;2048273;29;20274;-87
2023/05/08 01:12:56;;;;;;;5.65;3.30;;;;;;;;;;2039058;29;20031;-87
2023/05/08 01:14:18;;;;;;;5.10;3.05;;;;;;;;;;2040869;29;20039;-85
2023/05/08 01:15:30;;;;;;;5.22;3.30;;;;;;;;;;2050652;29;20487;-90
2023/05/08 01:17:00;;;;;;;5.00;3.33;;;;;;;;;;2048317;29;20015;-89
2023/05/08 01:18:18;;;;;;;4.65;3.13;;;;;;;;;;2039502;29;20019;-88
2023/05/08 01:19:34;;;;;;;6.10;3.55;;;;;;;;;;2039512;29;20503;-87
2023/05/08 01:20:39;;;;;;;4.55;3.03;;;;;;;;;;2041538;29;20115;-88
2023/05/08 01:21:51;;;;;;;4.90;3.20;;;;;;;;;;2039638;29;20027;-88
2023/05/08 01:22:51;;;;;;;3.40;2.70;;;;;;;;;;2039749;29;20087;-89
2023/05/08 01:24:10;;;;;;;6.05;3.22;;;;;;;;;;2031813;29;20456;-88
2023/05/08 01:25:22;;;;;;;8.10;3.40;;;;;;;;;;2033868;29;20031;-87
2023/05/08 01:26:37;;;;;;;6.03;3.35;;;;;;;;;;2032816;29;20024;-88
2023/05/08 01:27:49;;;;;;;6.80;4.13;;;;;;;;;;1685736;29;10246732;-88
2023/05/08 01:29:08;;;;;;;8.55;3.28;;;;;;;;;;2032949;29;20032;-88
2023/05/08 01:30:40;;;;;;;5.30;3.90;;;;;;;;;;2033858;29;20043;-88
2023/05/08 01:31:47;;;;;;;4.78;3.17;;;;;;;;;;2043552;29;20035;-88
2023/05/08 01:32:54;;;;;;;4.13;3.17;;;;;;;;;;2048125;29;20027;-88
2023/05/08 01:34:07;;;;;;;6.00;3.65;;;;;;;;;;2048134;29;20102;-88
2023/05/08 01:35:26;;;;;;;7.68;3.70;;;;;;;;;;2047725;29;20030;-87
2023/05/08 01:36:45;;;;;;;5.20;3.28;;;;;;;;;;1345436;29;10388038;-87
2023/05/08 01:38:17;;;;;;;9.00;4.03;;;;;;;;;;2039476;29;20057;-89
2023/05/08 01:39:46;;;;;;;10.70;3.63;;;;;;;;;;2039433;29;20028;-90
2023/05/08 01:40:53;;;;;;;5.55;3.42;;;;;;;;;;2033770;29;20126;-87
2023/05/08 01:42:06;;;;;;;5.40;3.50;;;;;;;;;;2040213;29;20111;-88
2023/05/08 01:43:48;;;;;;;5.68;3.78;;;;;;;;;;2048000;29;20510;-91
2023/05/08 01:44:56;;;;;;;7.85;3.03;;;;;;;;;;2013633;29;20148;-89
2023/05/08 01:46:02;;;;;;;4.28;3.17;;;;;;;;;;2032214;29;20076;-89
2023/05/08 01:47:09;;;;;;;3.63;3.30;;;;;;;;;;2040178;29;20023;-89
2023/05/08 01:48:14;;;;;;;3.92;2.85;;;;;;;;;;1697542;28;10252789;-89
2023/05/08 01:49:27;;;;;;;4.72;3.08;;;;;;;;;;2047858;29;20031;-90
2023/05/08 01:50:54;;;;;;;5.72;3.00;;;;;;;;;;2039605;29;20104;-89
2023/05/08 01:52:06;;;;;;;8.85;3.05;;;;;;;;;;2034961;29;20059;-89
2023/05/08 01:53:21;;;;;;;4.63;3.10;;;;;;;;;;2044719;28;20039;-90
2023/05/08 01:54:25;;;;;;;5.30;2.75;;;;;;;;;;2047874;29;20472;-89
2023/05/08 01:55:37;;;;;;;6.82;3.85;;;;;;;;;;2047720;29;20031;-89
2023/05/08 01:56:41;;;;;;;4.68;3.10;;;;;;;;;;2039365;29;20020;-88
2023/05/08 01:57:47;;;;;;;3.67;2.60;;;;;;;;;;2039567;29;20411;-88
2023/05/08 01:58:52;;;;;;;5.20;3.72;;;;;;;;;;2039130;29;20032;-88
2023/05/08 01:59:55;;;;;;;5.80;2.80;;;;;;;;;;2039035;29;20027;-89
2023/05/08 02:00:58;;;;;;;5.57;2.67;;;;;;;;;;2039274;29;20507;-89
2023/05/08 02:02:01;;;;;;;4.75;2.95;;;;;;;;;;2047712;29;20054;-89
2023/05/08 02:03:04;;;;;;;5.18;3.03;;;;;;;;;;2047805;29;20038;-87
2023/05/08 02:04:06;;;;;;;3.05;2.60;;;;;;;;;;2047745;29;20508;-88
2023/05/08 02:05:07;;;;;;;3.28;2.92;;;;;;;;;;2047755;29;20456;-89
2023/05/08 02:06:11;;;;;;;5.15;2.85;;;;;;;;;;2047736;29;20026;-88
2023/05/08 02:07:12;;;;;;;5.75;2.75;;;;;;;;;;2042108;29;20067;-86
2023/05/08 02:08:14;;;;;;;3.33;2.60;;;;;;;;;;2040373;29;20110;-87
2023/05/08 02:09:15;;;;;;;4.53;2.88;;;;;;;;;;2047777;29;20090;-88
2023/05/08 02:10:17;;;;;;;7.22;2.97;;;;;;;;;;2047811;29;20026;-88
2023/05/08 02:11:19;;;;;;;4.60;3.25;;;;;;;;;;2039125;29;20452;-88
2023/05/08 02:12:20;;;;;;;3.70;2.80;;;;;;;;;;2031673;29;20414;-88
2023/05/08 02:13:22;;;;;;;7.80;2.90;;;;;;;;;;2039321;29;20020;-89
2023/05/08 02:14:24;;;;;;;5.60;3.70;;;;;;;;;;2048567;29;20027;-87
2023/05/08 02:15:26;;;;;;;5.40;2.88;;;;;;;;;;2039019;29;20055;-88
2023/05/08 02:16:28;;;;;;;4.63;2.85;;;;;;;;;;2039392;29;20052;-88
2023/05/08 02:17:30;;;;;;;8.23;2.97;;;;;;;;;;2038919;29;20564;-88
2023/05/08 02:18:31;;;;;;;4.40;2.92;;;;;;;;;;2039719;29;20028;-88
2023/05/08 02:19:33;;;;;;;8.73;3.22;;;;;;;;;;2038949;29;20103;-88
2023/05/08 02:20:35;;;;;;;5.47;2.97;;;;;;;;;;2038845;29;20032;-86
2023/05/08 02:21:36;;;;;;;4.18;3.05;;;;;;;;;;2039064;29;20114;-88
2023/05/08 02:22:37;;;;;;;3.42;3.10;;;;;;;;;;2039040;29;20023;-87
2023/05/08 02:23:37;;;;;;;4.20;3.03;;;;;;;;;;2047281;28;20051;-89
2023/05/08 02:24:38;;;;;;;4.15;2.50;;;;;;;;;;2047693;29;20015;-88
2023/05/08 02:25:40;;;;;;;4.18;2.97;;;;;;;;;;2038946;29;20024;-87
2023/05/08 02:26:41;;;;;;;4.90;3.08;;;;;;;;;;2035210;29;20068;-89
2023/05/08 02:27:45;;;;;;;5.28;3.08;;;;;;;;;;2048414;29;20071;-88
2023/05/08 02:28:47;;;;;;;4.88;3.03;;;;;;;;;;2048631;29;20203;-88
2023/05/08 02:29:50;;;;;;;5.35;3.13;;;;;;;;;;2047522;29;20051;-89
2023/05/08 02:30:52;;;;;;;4.53;2.92;;;;;;;;;;2045862;29;20026;-89
2023/05/08 02:31:53;;;;;;;3.72;2.85;;;;;;;;;;2046792;29;20052;-88
2023/05/08 02:32:57;;;;;;;4.43;3.10;;;;;;;;;;2034605;29;20063;-88
2023/05/08 02:33:59;;;;;;;2.80;2.53;;;;;;;;;;2032047;29;20071;-88
2023/05/08 02:35:00;;;;;;;4.22;3.10;;;;;;;;;;2040055;29;20102;-88
2023/05/08 02:36:01;;;;;;;5.60;2.97;;;;;;;;;;2047761;29;20035;-87
2023/05/08 02:37:03;;;;;;;5.40;3.13;;;;;;;;;;2039057;29;20028;-87
2023/05/08 02:38:09;;;;;;;4.75;3.05;;;;;;;;;;2039313;29;20134;-87
2023/05/08 02:39:13;;;;;;;5.72;3.40;;;;;;;;;;2038986;29;20027;-88
2023/05/08 02:40:16;;;;;;;6.22;3.13;;;;;;;;;;2039566;29;20154;-88
2023/05/08 02:41:19;;;;;;;6.85;3.10;;;;;;;;;;2038923;29;20530;-88
2023/05/08 02:42:19;;;;;;;3.40;3.10;;;;;;;;;;2039094;29;20039;-88
2023/05/08 02:43:20;;;;;;;4.40;3.10;;;;;;;;;;2047382;29;20023;-88
2023/05/08 02:44:20;;;;;;;6.50;3.38;;;;;;;;;;2047743;29;20455;-87
2023/05/08 02:45:26;;;;;;;7.40;3.35;;;;;;;;;;2051183;29;20247;-87
2023/05/08 02:46:33;;;;;;;6.60;3.13;;;;;;;;;;2048424;29;20023;-88
2023/05/08 02:48:17;;;;;;;7.18;3.42;;;;;;;;;;2043023;29;20471;-88
2023/05/08 02:49:27;;;;;;;8.38;3.38;;;;;;;;;;2006031;29;20125;-87
2023/05/08 02:50:49;;;;;;;5.17;3.17;;;;;;;;;;2005081;29;20076;-87
2023/05/08 02:51:56;;;;;;;9.60;4.05;;;;;;;;;;1996691;29;20892;-88
2023/05/08 02:53:03;;;;;;;4.30;3.63;;;;;;;;;;2000367;29;20451;-87
2023/05/08 02:54:09;;;;;;;6.83;3.42;;;;;;;;;;1652562;29;10412655;-87
2023/05/08 02:55:43;;;;;;;5.28;3.75;;;;;;;;;;2037184;29;20649;-88
2023/05/08 02:56:54;;;;;;;4.05;3.45;;;;;;;;;;2042188;29;20073;-87
2023/05/08 02:58:11;;;;;;;8.68;4.55;;;;;;;;;;2047929;29;20069;-87
2023/05/08 02:59:35;;;;;;;10.25;4.00;;;;;;;;;;2048870;29;20027;-87
2023/05/08 03:01:05;;;;;;;9.10;3.72;;;;;;;;;;2040418;29;20491;-89
2023/05/08 03:02:12;;;;;;;4.10;3.67;;;;;;;;;;2041563;29;20054;-90
2023/05/08 03:03:26;;;;;;;7.88;3.85;;;;;;;;;;2047891;29;20034;-89
2023/05/08 03:04:40;;;;;;;8.80;4.05;;;;;;;;;;2047992;29;20018;-89
2023/05/08 03:05:48;;;;;;;7.60;3.92;;;;;;;;;;2039079;29;20114;-89
2023/05/08 03:06:50;;;;;;;6.32;4.55;;;;;;;;;;2040214;29;20023;-88
2023/05/08 03:07:54;;;;;;;6.72;4.13;;;;;;;;;;2038847;29;20392;-88
2023/05/08 03:09:00;;;;;;;8.43;4.28;;;;;;;;;;2039000;29;20439;-88
2023/05/08 03:10:08;;;;;;;5.60;4.38;;;;;;;;;;2039573;29;20107;-88
2023/05/08 03:11:23;;;;;;;7.40;4.60;;;;;;;;;;2047359;29;20229;-88
2023/05/08 03:12:27;;;;;;;8.68;4.18;;;;;;;;;;2047524;29;20225;-87
2023/05/08 03:13:30;;;;;;;7.25;3.97;;;;;;;;;;2038760;29;20491;-87
2023/05/08 03:14:34;;;;;;;6.43;4.47;;;;;;;;;;2038678;29;20480;-89
2023/05/08 03:15:43;;;;;;;6.15;3.92;;;;;;;;;;2031137;29;20024;-88
2023/05/08 03:16:46;;;;;;;4.18;3.70;;;;;;;;;;2040194;29;20106;-88
2023/05/08 03:17:49;;;;;;;7.38;3.75;;;;;;;;;;2038720;29;20119;-88
2023/05/08 03:18:58;;;;;;;7.03;3.75;;;;;;;;;;2038636;29;20035;-88
2023/05/08 03:20:04;;;;;;;5.05;4.10;;;;;;;;;;2039846;29;20127;-88
2023/05/08 03:21:06;;;;;;;6.40;3.90;;;;;;;;;;2049912;28;20046;-88
2023/05/08 03:22:09;;;;;;;5.88;3.50;;;;;;;;;;2047329;29;20027;-88
2023/05/08 03:23:11;;;;;;;5.35;4.10;;;;;;;;;;2047419;29;20053;-89
2023/05/08 03:24:15;;;;;;;7.45;4.07;;;;;;;;;;2047201;29;20464;-88
2023/05/08 03:25:18;;;;;;;5.20;3.85;;;;;;;;;;2047296;29;20468;-88
2023/05/08 03:26:20;;;;;;;6.50;3.60;;;;;;;;;;2047219;29;20023;-88
2023/05/08 03:27:21;;;;;;;5.07;4.22;;;;;;;;;;2038672;29;20107;-88
2023/05/08 03:28:22;;;;;;;6.03;4.00;;;;;;;;;;1683578;29;10430094;-88
2023/05/08 03:29:24;;;;;;;5.38;4.10;;;;;;;;;;2038738;29;20456;-88
2023/05/08 03:30:26;;;;;;;6.70;3.97;;;;;;;;;;2038833;29;20460;-89
2023/05/08 03:31:29;;;;;;;5.28;3.72;;;;;;;;;;2038742;29;20030;-88
2023/05/08 03:32:32;;;;;;;5.78;4.07;;;;;;;;;;2038607;29;20023;-89
2023/05/08 03:33:36;;;;;;;8.55;4.43;;;;;;;;;;2038550;29;20019;-88
2023/05/08 03:34:38;;;;;;;5.70;3.95;;;;;;;;;;2038951;29;20115;-89
2023/05/08 03:35:40;;;;;;;4.45;4.03;;;;;;;;;;2047388;28;20455;-89
2023/05/08 03:36:41;;;;;;;5.40;4.07;;;;;;;;;;2040150;29;20099;-89
2023/05/08 03:37:42;;;;;;;6.38;4.40;;;;;;;;;;2040176;29;20568;-89
2023/05/08 03:38:42;;;;;;;4.80;4.00;;;;;;;;;;2040195;29;20071;-90
2023/05/08 03:39:43;;;;;;;6.60;4.30;;;;;;;;;;2048858;29;20170;-90
2023/05/08 03:40:44;;;;;;;5.28;4.07;;;;;;;;;;2048950;29;20031;-89
2023/05/08 03:41:44;;;;;;;5.63;4.22;;;;;;;;;;2048864;29;20023;-88
2023/05/08 03:42:46;;;;;;;5.38;4.07;;;;;;;;;;2040149;29;20421;-90
2023/05/08 03:43:47;;;;;;;7.38;4.43;;;;;;;;;;2040394;29;20221;-89
2023/05/08 03:44:51;;;;;;;6.15;4.43;;;;;;;;;;2040093;29;20055;-90
2023/05/08 03:45:53;;;;;;;5.40;4.53;;;;;;;;;;2048822;29;20027;-91
2023/05/08 03:46:56;;;;;;;4.43;3.53;;;;;;;;;;2040186;29;20043;-88
2023/05/08 03:47:58;;;;;;;5.13;4.05;;;;;;;;;;2040107;29;20122;-90
2023/05/08 03:49:02;;;;;;;6.70;4.35;;;;;;;;;;2040645;29;20427;-90
2023/05/08 03:50:03;;;;;;;5.00;4.47;;;;;;;;;;2048619;29;20368;-90
2023/05/08 03:51:04;;;;;;;6.43;4.20;;;;;;;;;;2049002;29;20061;-90
2023/05/08 03:52:05;;;;;;;7.43;4.10;;;;;;;;;;1693159;29;10279148;-89
2023/05/08 03:53:06;;;;;;;5.18;4.22;;;;;;;;;;2034817;29;20087;-89
2023/05/08 03:54:06;;;;;;;6.40;4.53;;;;;;;;;;2032514;29;20072;-89
2023/05/08 03:55:08;;;;;;;6.57;4.30;;;;;;;;;;2040093;29;20118;-90
2023/05/08 03:56:10;;;;;;;5.38;4.10;;;;;;;;;;2049046;28;20019;-89
2023/05/08 03:57:10;;;;;;;6.03;4.10;;;;;;;;;;2048987;29;20093;-89
2023/05/08 03:58:25;;;;;;;6.40;4.78;;;;;;;;;;2049170;29;20696;-90
2023/05/08 03:59:37;;;;;;;5.32;4.18;;;;;;;;;;2040562;29;20421;-90
2023/05/08 04:00:57;;;;;;;6.53;4.47;;;;;;;;;;2040373;29;20091;-89
2023/05/08 04:02:16;;;;;;;6.30;4.87;;;;;;;;;;2035168;29;20024;-89
2023/05/08 04:03:20;;;;;;;5.72;4.97;;;;;;;;;;2042890;29;20282;-89
2023/05/08 04:04:39;;;;;;;7.10;4.10;;;;;;;;;;2040177;29;20180;-88
2023/05/08 04:06:00;;;;;;;7.63;4.57;;;;;;;;;;2040244;29;20058;-89
2023/05/08 04:07:12;;;;;;;6.10;4.28;;;;;;;;;;2043259;29;20031;-89
2023/05/08 04:08:23;;;;;;;7.57;4.38;;;;;;;;;;2040178;29;20541;-90
2023/05/08 04:09:34;;;;;;;;;;;;;;;;;;2042303;29;20102;-89
2023/05/08 04:10:45;;;;;;;6.75;4.50;;;;;;;;;;2040262;29;19960;-90
2023/05/08 04:11:51;;;;;;;;;;;;;;;;;;2042286;29;20132;-90
2023/05/08 04:13:12;;;;;;;6.05;4.53;;;;;;;;;;2048890;29;20359;-89
2023/05/08 04:14:15;;;;;;;5.03;4.32;;;;;;;;;;2049088;29;20477;-89
2023/05/08 04:15:20;;;;;;;8.32;5.13;;;;;;;;;;2040141;29;20039;-88
2023/05/08 04:16:25;;;;;;;8.88;4.78;;;;;;;;;;2040333;29;20024;-88
2023/05/08 04:17:41;;;;;;;7.15;4.10;;;;;;;;;;2043756;28;20020;-88
2023/05/08 04:18:46;;;;;;;7.25;4.30;;;;;;;;;;2048916;29;20055;-89
2023/05/08 04:19:54;;;;;;;5.43;4.32;;;;;;;;;;2048770;29;20074;-90
2023/05/08 04:20:56;;;;;;;6.07;4.53;;;;;;;;;;2048827;29;20407;-88
2023/05/08 04:22:03;;;;;;;7.63;4.43;;;;;;;;;;2040079;29;20036;-88
2023/05/08 04:23:05;;;;;;;6.78;4.20;;;;;;;;;;2041229;29;20079;-88
2023/05/08 04:24:09;;;;;;;5.82;4.57;;;;;;;;;;2040093;29;20118;-89
2023/05/08 04:25:11;;;;;;;10.68;4.45;;;;;;;;;;2040500;29;20027;-89
2023/05/08 04:26:13;;;;;;;5.43;4.28;;;;;;;;;;2040021;29;20055;-88
2023/05/08 04:27:15;;;;;;;6.22;4.20;;;;;;;;;;2032637;29;20036;-89
2023/05/08 04:28:16;;;;;;;6.88;4.80;;;;;;;;;;2040289;29;20038;-89
2023/05/08 04:29:17;;;;;;;7.15;4.30;;;;;;;;;;2049275;29;20027;-91
2023/05/08 04:30:30;;;;;;;5.50;4.15;;;;;;;;;;2041132;29;20039;-91
2023/05/08 04:31:30;;;;;;;6.05;4.43;;;;;;;;;;2041847;29;20039;-90
2023/05/08 04:32:33;;;;;;;6.13;4.72;;;;;;;;;;2039917;29;20042;-91
2023/05/08 04:33:34;;;;;;;5.43;4.53;;;;;;;;;;2040812;29;20032;-89
2023/05/08 04:34:35;;;;;;;5.63;3.90;;;;;;;;;;2040341;29;20080;-88
2023/05/08 04:35:36;;;;;;;6.00;4.15;;;;;;;;;;2040124;29;20024;-89
2023/05/08 04:36:36;;;;;;;6.85;3.97;;;;;;;;;;2040077;29;20141;-90
2023/05/08 04:37:36;;;;;;;4.70;3.72;;;;;;;;;;2040072;29;20160;-88
2023/05/08 04:38:37;;;;;;;7.68;4.00;;;;;;;;;;2032279;29;20092;-90
2023/05/08 04:39:37;;;;;;;7.90;4.60;;;;;;;;;;2032052;29;20342;-89
2023/05/08 04:40:38;;;;;;;6.35;3.97;;;;;;;;;;2032299;29;20027;-88
2023/05/08 04:41:38;;;;;;;8.48;4.43;;;;;;;;;;2040171;29;20122;-89
2023/05/08 04:42:42;;;;;;;6.30;4.50;;;;;;;;;;2040313;29;20488;-89
2023/05/08 04:43:42;;;;;;;5.22;4.18;;;;;;;;;;2049025;29;20050;-89
2023/05/08 04:44:43;;;;;;;6.82;4.60;;;;;;;;;;2052141;29;20358;-87
2023/05/08 04:45:43;;;;;;;6.05;4.60;;;;;;;;;;2042701;29;20129;-90
2023/05/08 04:46:43;;;;;;;4.95;4.05;;;;;;;;;;2040044;29;20506;-90
2023/05/08 04:47:44;;;;;;;5.82;4.35;;;;;;;;;;2040377;29;20043;-88
2023/05/08 04:48:44;;;;;;;7.30;4.28;;;;;;;;;;2040053;29;20185;-89
2023/05/08 04:49:45;;;;;;;6.40;3.90;;;;;;;;;;2032215;29;20028;-89
2023/05/08 04:50:45;;;;;;;5.85;3.75;;;;;;;;;;2040218;29;20020;-89
2023/05/08 04:51:46;;;;;;;6.28;4.05;;;;;;;;;;2040042;29;20146;-89
2023/05/08 04:52:46;;;;;;;7.18;3.95;;;;;;;;;;2040422;29;20028;-89
2023/05/08 04:53:47;;;;;;;6.57;4.15;;;;;;;;;;2048690;29;20058;-89
2023/05/08 04:54:47;;;;;;;4.45;4.03;;;;;;;;;;2048538;29;20028;-89
2023/05/08 04:55:47;;;;;;;4.68;3.90;;;;;;;;;;2048861;29;20447;-89
2023/05/08 04:56:48;;;;;;;5.72;4.13;;;;;;;;;;2048926;28;20263;-89
2023/05/08 04:57:48;;;;;;;5.75;3.70;;;;;;;;;;2048874;29;20042;-89
2023/05/08 04:58:50;;;;;;;6.47;4.65;;;;;;;;;;2050570;28;20214;-90
2023/05/08 04:59:50;;;;;;;4.90;3.72;;;;;;;;;;2042241;29;20020;-89
2023/05/08 05:00:51;;;;;;;5.55;3.40;;;;;;;;;;2049440;29;20385;-89
2023/05/08 05:01:51;;;;;;;6.35;3.70;;;;;;;;;;2053895;29;20387;-89
2023/05/08 05:02:51;;;;;;;6.63;3.83;;;;;;;;;;2040325;29;20035;-89
2023/05/08 05:03:52;;;;;;;4.80;3.50;;;;;;;;;;2039931;29;20028;-88
2023/05/08 05:04:52;;;;;;;7.28;3.63;;;;;;;;;;2032128;29;20464;-89
2023/05/08 05:06:01;;;;;;;6.32;3.58;;;;;;;;;;2040077;29;20032;-88
2023/05/08 05:07:02;;;;;;;4.70;3.45;;;;;;;;;;2040072;29;20062;-89
2023/05/08 05:08:03;;;;;;;7.07;4.68;;;;;;;;;;1688973;29;10306683;-89
2023/05/08 05:09:04;;;;;;;4.28;3.63;;;;;;;;;;2039736;29;20034;-89
2023/05/08 05:10:04;;;;;;;5.60;3.88;;;;;;;;;;2039921;29;20038;-89
2023/05/08 05:11:05;;;;;;;5.55;3.90;;;;;;;;;;2040430;29;20126;-89
2023/05/08 05:12:06;;;;;;;7.68;3.78;;;;;;;;;;2048407;29;20141;-89
2023/05/08 05:13:06;;;;;;;8.02;3.85;;;;;;;;;;2048599;29;20030;-89
2023/05/08 05:14:06;;;;;;;9.55;4.28;;;;;;;;;;2048523;29;20054;-89
2023/05/08 05:15:07;;;;;;;8.43;3.75;;;;;;;;;;2052189;29;20031;-89
2023/05/08 05:16:08;;;;;;;6.35;3.88;;;;;;;;;;2057785;29;20027;-89
2023/05/08 05:17:08;;;;;;;6.25;3.75;;;;;;;;;;2050254;28;20087;-89
2023/05/08 05:18:08;;;;;;;6.97;3.75;;;;;;;;;;2050645;28;20039;-89
2023/05/08 05:19:09;;;;;;;5.07;3.40;;;;;;;;;;2058835;29;20030;-91
2023/05/08 05:20:10;;;;;;;4.65;4.03;;;;;;;;;;2058370;28;20114;-88
2023/05/08 05:21:10;;;;;;;6.03;3.53;;;;;;;;;;2041977;29;20513;-91
2023/05/08 05:22:13;;;;;;;5.95;3.58;;;;;;;;;;2041412;29;20027;-90
2023/05/08 05:23:13;;;;;;;9.98;3.45;;;;;;;;;;2048804;29;20423;-89
2023/05/08 05:24:20;;;;;;;4.07;3.17;;;;;;;;;;2048734;29;20093;-89
2023/05/08 05:25:23;;;;;;;8.20;3.20;;;;;;;;;;2048950;29;20499;-88
2023/05/08 05:26:24;;;;;;;4.35;3.17;;;;;;;;;;2048663;29;20027;-88
2023/05/08 05:27:35;;;;;;;5.40;3.08;;;;;;;;;;2048851;29;20039;-88
2023/05/08 05:28:35;;;;;;;5.28;3.15;;;;;;;;;;2048342;29;20399;-88
2023/05/08 05:29:42;;;;;;;6.75;3.75;;;;;;;;;;2039838;29;20047;-89
2023/05/08 05:30:46;;;;;;;6.20;3.53;;;;;;;;;;2039823;29;20027;-89
2023/05/08 05:31:46;;;;;;;10.55;3.28;;;;;;;;;;2040023;29;20488;-88
2023/05/08 05:32:47;;;;;;;6.25;3.85;;;;;;;;;;2048653;29;20181;-90
2023/05/08 05:33:47;;;;;;;6.55;3.22;;;;;;;;;;2039893;29;20160;-89
2023/05/08 05:34:47;;;;;;;5.63;3.33;;;;;;;;;;2039986;29;20024;-89
2023/05/08 05:35:48;;;;;;;3.90;3.50;;;;;;;;;;2048285;29;20038;-89
2023/05/08 05:36:48;;;;;;;4.72;3.50;;;;;;;;;;2039821;29;20588;-88
2023/05/08 05:37:49;;;;;;;7.20;3.58;;;;;;;;;;2043540;29;20059;-88
2023/05/08 05:38:49;;;;;;;3.58;3.22;;;;;;;;;;2032065;29;20031;-89
2023/05/08 05:39:50;;;;;;;7.45;3.75;;;;;;;;;;2039749;29;20507;-89
2023/05/08 05:40:50;;;;;;;5.97;3.33;;;;;;;;;;2039984;29;20028;-89
2023/05/08 05:41:52;;;;;;;4.63;3.47;;;;;;;;;;2039759;29;20421;-89
2023/05/08 05:42:52;;;;;;;6.38;3.67;;;;;;;;;;2039820;29;20031;-89
2023/05/08 05:43:53;;;;;;;3.90;3.20;;;;;;;;;;2048140;29;20031;-88
2023/05/08 05:44:55;;;;;;;6.57;3.50;;;;;;;;;;2039634;29;20028;-88
2023/05/08 05:46:03;;;;;;;5.40;3.38;;;;;;;;;;2040011;29;20412;-89
2023/05/08 05:47:08;;;;;;;7.63;3.53;;;;;;;;;;2048114;29;20054;-88
2023/05/08 05:48:09;;;;;;;5.03;3.72;;;;;;;;;;2039895;29;20451;-88
2023/05/08 05:49:11;;;;;;;6.90;3.80;;;;;;;;;;2039780;29;20059;-88
2023/05/08 05:50:11;;;;;;;8.25;3.60;;;;;;;;;;2048129;29;20019;-90
2023/05/08 05:51:13;;;;;;;7.28;3.72;;;;;;;;;;2039861;29;20031;-90
2023/05/08 05:52:13;;;;;;;8.85;3.90;;;;;;;;;;2031765;29;20111;-89
2023/05/08 05:53:14;;;;;;;5.75;3.50;;;;;;;;;;2031985;29;20496;-90
2023/05/08 05:54:15;;;;;;;9.63;3.92;;;;;;;;;;2039548;29;20043;-88
2023/05/08 05:55:16;;;;;;;5.63;3.28;;;;;;;;;;2031876;29;20542;-90
2023/05/08 05:56:16;;;;;;;4.35;3.33;;;;;;;;;;2039502;29;20031;-90
2023/05/08 05:57:16;;;;;;;4.13;3.05;;;;;;;;;;2039669;29;20038;-87
2023/05/08 05:58:17;;;;;;;4.82;2.88;;;;;;;;;;2031343;29;20130;-90
2023/05/08 05:59:20;;;;;;;5.63;3.10;;;;;;;;;;2039282;29;20123;-89
2023/05/08 06:00:20;;;;;;;4.65;2.92;;;;;;;;;;2048500;29;20050;-90
2023/05/08 06:01:23;;;;;;;3.13;2.83;;;;;;;;;;2039537;29;20512;-88
2023/05/08 06:02:23;;;;;;;6.63;3.47;;;;;;;;;;2039849;29;20109;-89
2023/05/08 06:03:27;;;;;;;7.13;3.00;;;;;;;;;;2039437;29;20036;-89
2023/05/08 06:04:27;;;;;;;7.38;2.97;;;;;;;;;;2039754;29;20028;-89
2023/05/08 06:05:28;;;;;;;3.85;3.13;;;;;;;;;;2039230;29;20530;-89
2023/05/08 06:06:28;;;;;;;5.72;2.90;;;;;;;;;;2039610;29;20020;-88
2023/05/08 06:07:29;;;;;;;4.15;3.10;;;;;;;;;;2048301;29;20057;-89
2023/05/08 06:08:33;;;;;;;4.78;2.88;;;;;;;;;;2039426;29;20463;-89
2023/05/08 06:09:33;;;;;;;3.42;2.92;;;;;;;;;;2019149;29;20140;-89
2023/05/08 06:10:34;;;;;;;5.57;3.63;;;;;;;;;;2039258;29;20053;-89
2023/05/08 06:11:35;;;;;;;3.78;2.88;;;;;;;;;;2039345;29;20098;-89
2023/05/08 06:12:35;;;;;;;4.10;3.22;;;;;;;;;;2039220;29;20047;-90
2023/05/08 06:13:38;;;;;;;4.38;2.83;;;;;;;;;;2039164;29;20024;-89
2023/05/08 06:14:38;;;;;;;5.53;3.00;;;;;;;;;;2047883;29;20082;-89
2023/05/08 06:15:45;;;;;;;8.10;3.15;;;;;;;;;;2047819;29;20030;-89
2023/05/08 06:16:46;;;;;;;7.07;2.78;;;;;;;;;;2048045;29;20058;-90
2023/05/08 06:17:46;;;;;;;4.32;3.10;;;;;;;;;;2039303;29;20530;-90
2023/05/08 06:18:47;;;;;;;3.90;2.88;;;;;;;;;;2039320;29;20032;-90
2023/05/08 06:19:49;;;;;;;5.60;3.15;;;;;;;;;;2039452;29;20024;-89
2023/05/08 06:20:55;;;;;;;4.95;3.17;;;;;;;;;;2031893;29;20516;-91
2023/05/08 06:21:56;;;;;;;5.82;3.83;;;;;;;;;;2039766;29;20558;-91
2023/05/08 06:22:56;;;;;;;6.65;3.40;;;;;;;;;;2038975;29;20055;-92
2023/05/08 06:23:57;;;;;;;5.53;3.58;;;;;;;;;;1683964;29;10241692;-89
2023/05/08 06:24:57;;;;;;;5.57;4.05;;;;;;;;;;2038908;29;20034;-89